sensor_id;sensor_type;location;lat;lon;timestamp;pressure;altitude;pressure_sealevel;temperature;humidity
32237;BME280;18726;44.732;10.550;2023-04-27T00:02:01;101003.13;;;12.40;100.00
32237;BME280;18726;44.732;10.550;2023-04-27T00:05:05;101000.56;;;12.78;100.00
32237;BME280;18726;44.732;10.550;2023-04-27T00:08:09;100996.13;;;13.05;100.00
32237;BME280;18726;44.732;10.550;2023-04-27T00:11:13;100994.81;;;12.99;100.00
32237;BME280;18726;44.732;10.550;2023-04-27T00:14:16;101000.56;;;12.78;100.00
32237;BME280;18726;44.732;10.550;2023-04-27T00:17:20;101009.88;;;12.46;100.00
32237;BME280;18726;44.732;10.550;2023-04-27T00:20:23;100997.53;;;11.65;100.00
32237;BME280;18726;44.732;10.550;2023-04-27T00:23:27;100999.22;;;11.41;100.00
32237;BME280;18726;44.732;10.550;2023-04-27T00:26:31;100996.06;;;11.79;100.00
32237;BME280;18726;44.732;10.550;2023-04-27T00:29:36;101007.69;;;11.52;100.00
32237;BME280;18726;44.732;10.550;2023-04-27T00:32:45;101004.88;;;11.48;100.00
32237;BME280;18726;44.732;10.550;2023-04-27T00:35:49;101005.78;;;11.40;100.00
32237;BME280;18726;44.732;10.550;2023-04-27T00:38:53;101009.16;;;11.49;100.00
32237;BME280;18726;44.732;10.550;2023-04-27T00:41:56;101012.28;;;11.64;100.00
32237;BME280;18726;44.732;10.550;2023-04-27T00:45:00;101019.91;;;11.58;100.00
32237;BME280;18726;44.732;10.550;2023-04-27T00:48:04;101020.41;;;11.36;100.00
32237;BME280;18726;44.732;10.550;2023-04-27T00:51:08;101003.53;;;11.70;100.00
32237;BME280;18726;44.732;10.550;2023-04-27T00:54:13;101004.94;;;12.20;100.00
32237;BME280;18726;44.732;10.550;2023-04-27T00:57:17;101023.53;;;12.02;100.00
32237;BME280;18726;44.732;10.550;2023-04-27T01:00:21;101021.16;;;12.60;100.00
32237;BME280;18726;44.732;10.550;2023-04-27T01:03:25;101021.03;;;12.72;100.00
32237;BME280;18726;44.732;10.550;2023-04-27T01:06:29;101022.38;;;12.63;100.00
32237;BME280;18726;44.732;10.550;2023-04-27T01:09:34;101018.31;;;12.72;100.00
32237;BME280;18726;44.732;10.550;2023-04-27T01:12:37;101021.69;;;12.06;100.00
32237;BME280;18726;44.732;10.550;2023-04-27T01:15:42;101024.16;;;11.43;100.00
32237;BME280;18726;44.732;10.550;2023-04-27T01:18:46;101019.75;;;11.02;100.00
32237;BME280;18726;44.732;10.550;2023-04-27T01:21:50;101024.50;;;10.57;100.00
32237;BME280;18726;44.732;10.550;2023-04-27T01:24:54;101024.59;;;10.36;100.00
32237;BME280;18726;44.732;10.550;2023-04-27T01:27:58;101025.28;;;10.33;100.00
32237;BME280;18726;44.732;10.550;2023-04-27T01:31:01;101025.56;;;10.64;100.00
32237;BME280;18726;44.732;10.550;2023-04-27T01:34:05;101027.47;;;11.12;100.00
32237;BME280;18726;44.732;10.550;2023-04-27T01:37:09;101028.44;;;11.44;100.00
32237;BME280;18726;44.732;10.550;2023-04-27T01:40:13;101025.59;;;11.93;100.00
32237;BME280;18726;44.732;10.550;2023-04-27T01:43:17;101038.97;;;11.98;100.00
32237;BME280;18726;44.732;10.550;2023-04-27T01:46:21;101041.72;;;12.14;100.00
32237;BME280;18726;44.732;10.550;2023-04-27T01:49:24;101046.97;;;11.79;100.00
32237;BME280;18726;44.732;10.550;2023-04-27T01:52:28;101053.03;;;12.00;100.00
32237;BME280;18726;44.732;10.550;2023-04-27T01:55:32;101053.72;;;11.97;100.00
32237;BME280;18726;44.732;10.550;2023-04-27T01:58:35;101052.22;;;12.00;100.00
32237;BME280;18726;44.732;10.550;2023-04-27T02:01:39;101061.91;;;11.85;100.00
32237;BME280;18726;44.732;10.550;2023-04-27T02:04:43;101051.59;;;11.14;100.00
32237;BME280;18726;44.732;10.550;2023-04-27T02:07:48;101053.84;;;11.00;100.00
32237;BME280;18726;44.732;10.550;2023-04-27T02:10:52;101050.69;;;11.22;100.00
32237;BME280;18726;44.732;10.550;2023-04-27T02:13:55;101063.38;;;11.18;100.00
32237;BME280;18726;44.732;10.550;2023-04-27T02:17:07;101059.88;;;11.05;100.00
32237;BME280;18726;44.732;10.550;2023-04-27T02:20:10;101057.59;;;11.20;100.00
32237;BME280;18726;44.732;10.550;2023-04-27T02:23:14;101055.78;;;11.11;100.00
32237;BME280;18726;44.732;10.550;2023-04-27T02:26:20;101063.63;;;11.13;100.00
32237;BME280;18726;44.732;10.550;2023-04-27T02:29:29;101058.81;;;11.34;100.00
32237;BME280;18726;44.732;10.550;2023-04-27T02:32:32;101076.50;;;11.28;100.00
32237;BME280;18726;44.732;10.550;2023-04-27T02:35:36;101074.22;;;11.55;100.00
32237;BME280;18726;44.732;10.550;2023-04-27T02:38:39;101079.59;;;11.91;100.00
32237;BME280;18726;44.732;10.550;2023-04-27T02:41:43;101075.63;;;12.16;100.00
32237;BME280;18726;44.732;10.550;2023-04-27T02:44:46;101089.56;;;11.99;100.00
32237;BME280;18726;44.732;10.550;2023-04-27T02:47:50;101094.59;;;11.73;100.00
32237;BME280;18726;44.732;10.550;2023-04-27T02:50:54;101095.03;;;11.87;100.00
32237;BME280;18726;44.732;10.550;2023-04-27T02:53:58;101093.88;;;11.88;100.00
32237;BME280;18726;44.732;10.550;2023-04-27T02:57:02;101092.31;;;11.87;100.00
32237;BME280;18726;44.732;10.550;2023-04-27T03:00:07;101105.00;;;11.95;100.00
32237;BME280;18726;44.732;10.550;2023-04-27T03:03:13;101100.22;;;11.92;100.00
32237;BME280;18726;44.732;10.550;2023-04-27T03:06:16;101099.09;;;11.93;100.00
32237;BME280;18726;44.732;10.550;2023-04-27T03:09:20;101105.47;;;11.73;100.00
32237;BME280;18726;44.732;10.550;2023-04-27T03:12:23;101117.09;;;11.21;100.00
32237;BME280;18726;44.732;10.550;2023-04-27T03:15:27;101114.25;;;11.18;100.00
32237;BME280;18726;44.732;10.550;2023-04-27T03:18:31;101109.06;;;11.25;100.00
32237;BME280;18726;44.732;10.550;2023-04-27T03:21:34;101116.47;;;10.67;100.00
32237;BME280;18726;44.732;10.550;2023-04-27T03:24:38;101108.34;;;10.91;100.00
32237;BME280;18726;44.732;10.550;2023-04-27T03:27:41;101120.94;;;10.96;100.00
32237;BME280;18726;44.732;10.550;2023-04-27T03:30:45;101121.59;;;11.05;100.00
32237;BME280;18726;44.732;10.550;2023-04-27T03:33:49;101130.22;;;11.07;100.00
32237;BME280;18726;44.732;10.550;2023-04-27T03:36:53;101126.81;;;11.10;100.00
32237;BME280;18726;44.732;10.550;2023-04-27T03:39:56;101136.22;;;10.55;100.00
32237;BME280;18726;44.732;10.550;2023-04-27T03:43:00;101140.19;;;10.25;100.00
32237;BME280;18726;44.732;10.550;2023-04-27T03:46:04;101139.03;;;10.05;100.00
32237;BME280;18726;44.732;10.550;2023-04-27T03:49:08;101136.03;;;10.72;100.00
32237;BME280;18726;44.732;10.550;2023-04-27T03:52:12;101139.38;;;11.02;100.00
32237;BME280;18726;44.732;10.550;2023-04-27T03:55:16;101139.50;;;11.06;100.00
32237;BME280;18726;44.732;10.550;2023-04-27T03:58:20;101140.53;;;10.68;100.00
32237;BME280;18726;44.732;10.550;2023-04-27T04:01:49;101137.81;;;10.68;100.00
32237;BME280;18726;44.732;10.550;2023-04-27T04:04:54;101138.22;;;10.46;100.00
32237;BME280;18726;44.732;10.550;2023-04-27T04:07:57;101143.47;;;10.09;100.00
32237;BME280;18726;44.732;10.550;2023-04-27T04:11:02;101143.53;;;9.80;100.00
32237;BME280;18726;44.732;10.550;2023-04-27T04:14:06;101144.28;;;9.60;100.00
32237;BME280;18726;44.732;10.550;2023-04-27T04:17:10;101150.34;;;9.57;100.00
32237;BME280;18726;44.732;10.550;2023-04-27T04:20:14;101152.16;;;9.53;100.00
32237;BME280;18726;44.732;10.550;2023-04-27T04:23:18;101150.75;;;9.97;100.00
32237;BME280;18726;44.732;10.550;2023-04-27T04:26:22;101157.09;;;10.42;100.00
32237;BME280;18726;44.732;10.550;2023-04-27T04:29:26;101167.44;;;10.82;100.00
32237;BME280;18726;44.732;10.550;2023-04-27T04:32:29;101168.31;;;11.43;100.00
32237;BME280;18726;44.732;10.550;2023-04-27T04:35:36;101173.28;;;11.90;100.00
32237;BME280;18726;44.732;10.550;2023-04-27T04:38:40;101187.03;;;12.34;100.00
32237;BME280;18726;44.732;10.550;2023-04-27T04:41:44;101193.03;;;13.11;100.00
32237;BME280;18726;44.732;10.550;2023-04-27T04:44:49;101185.59;;;13.90;100.00
32237;BME280;18726;44.732;10.550;2023-04-27T04:47:53;101197.69;;;14.63;100.00
32237;BME280;18726;44.732;10.550;2023-04-27T04:50:58;101209.06;;;15.52;100.00
32237;BME280;18726;44.732;10.550;2023-04-27T04:54:01;101207.16;;;16.36;100.00
32237;BME280;18726;44.732;10.550;2023-04-27T04:57:04;101209.13;;;17.06;100.00
32237;BME280;18726;44.732;10.550;2023-04-27T05:00:11;101215.50;;;17.13;75.15
32237;BME280;18726;44.732;10.550;2023-04-27T05:03:16;101222.16;;;17.57;78.44
32237;BME280;18726;44.732;10.550;2023-04-27T05:06:19;101223.72;;;17.13;71.45
32237;BME280;18726;44.732;10.550;2023-04-27T05:09:23;101228.31;;;17.94;66.19
32237;BME280;18726;44.732;10.550;2023-04-27T05:12:27;101224.56;;;18.16;63.48
32237;BME280;18726;44.732;10.550;2023-04-27T05:15:30;101233.16;;;19.16;69.30
32237;BME280;18726;44.732;10.550;2023-04-27T05:18:34;101235.75;;;20.65;65.51
32237;BME280;18726;44.732;10.550;2023-04-27T05:21:38;101244.31;;;22.33;58.43
32237;BME280;18726;44.732;10.550;2023-04-27T05:24:42;101240.69;;;23.28;50.55
32237;BME280;18726;44.732;10.550;2023-04-27T05:27:45;101237.47;;;23.79;46.84
32237;BME280;18726;44.732;10.550;2023-04-27T05:30:48;101232.41;;;23.74;45.48
32237;BME280;18726;44.732;10.550;2023-04-27T05:33:52;101239.72;;;23.65;45.27
32237;BME280;18726;44.732;10.550;2023-04-27T05:36:56;101233.44;;;24.47;45.50
32237;BME280;18726;44.732;10.550;2023-04-27T05:39:59;101245.78;;;25.50;44.29
32237;BME280;18726;44.732;10.550;2023-04-27T05:43:03;101246.78;;;26.05;41.86
32237;BME280;18726;44.732;10.550;2023-04-27T05:46:07;101252.47;;;27.48;40.92
32237;BME280;18726;44.732;10.550;2023-04-27T05:49:11;101254.56;;;28.92;40.10
32237;BME280;18726;44.732;10.550;2023-04-27T05:52:15;101256.88;;;29.92;38.09
32237;BME280;18726;44.732;10.550;2023-04-27T05:55:18;101264.38;;;30.92;36.46
32237;BME280;18726;44.732;10.550;2023-04-27T05:58:22;101274.31;;;31.44;34.75
32237;BME280;18726;44.732;10.550;2023-04-27T06:01:26;101282.13;;;31.73;33.02
32237;BME280;18726;44.732;10.550;2023-04-27T06:04:30;101272.66;;;32.24;33.59
32237;BME280;18726;44.732;10.550;2023-04-27T06:07:35;101282.47;;;33.02;32.96
32237;BME280;18726;44.732;10.550;2023-04-27T06:10:40;101279.81;;;34.03;31.48
32237;BME280;18726;44.732;10.550;2023-04-27T06:13:43;101273.66;;;34.51;30.77
32237;BME280;18726;44.732;10.550;2023-04-27T06:16:47;101274.69;;;34.79;30.42
32237;BME280;18726;44.732;10.550;2023-04-27T06:19:51;101273.72;;;35.25;30.31
32237;BME280;18726;44.732;10.550;2023-04-27T06:22:54;101269.75;;;35.06;28.03
32237;BME280;18726;44.732;10.550;2023-04-27T06:25:59;101269.03;;;34.28;30.21
32237;BME280;18726;44.732;10.550;2023-04-27T06:29:04;101263.22;;;33.15;31.10
32237;BME280;18726;44.732;10.550;2023-04-27T06:32:10;101262.19;;;33.88;30.16
32237;BME280;18726;44.732;10.550;2023-04-27T06:35:14;101270.06;;;32.64;30.78
32237;BME280;18726;44.732;10.550;2023-04-27T06:38:18;101262.31;;;31.01;32.75
32237;BME280;18726;44.732;10.550;2023-04-27T06:41:23;101270.44;;;31.41;33.98
32237;BME280;18726;44.732;10.550;2023-04-27T06:44:27;101277.53;;;31.99;31.14
32237;BME280;18726;44.732;10.550;2023-04-27T06:47:30;101281.09;;;32.38;32.82
32237;BME280;18726;44.732;10.550;2023-04-27T06:50:34;101278.97;;;33.77;31.43
32237;BME280;18726;44.732;10.550;2023-04-27T06:53:40;101292.41;;;36.19;29.18
32237;BME280;18726;44.732;10.550;2023-04-27T06:56:44;101278.28;;;34.54;28.87
32237;BME280;18726;44.732;10.550;2023-04-27T06:59:50;101277.69;;;33.98;30.40
32237;BME280;18726;44.732;10.550;2023-04-27T07:02:54;101272.50;;;31.55;33.34
32237;BME280;18726;44.732;10.550;2023-04-27T07:05:58;101279.03;;;34.03;32.31
32237;BME280;18726;44.732;10.550;2023-04-27T07:09:02;101286.59;;;36.56;29.39
32237;BME280;18726;44.732;10.550;2023-04-27T07:12:08;101291.34;;;37.73;27.90
32237;BME280;18726;44.732;10.550;2023-04-27T07:15:12;101287.78;;;37.56;27.01
32237;BME280;18726;44.732;10.550;2023-04-27T07:18:15;101283.91;;;36.02;27.34
32237;BME280;18726;44.732;10.550;2023-04-27T07:21:19;101277.19;;;34.46;29.76
32237;BME280;18726;44.732;10.550;2023-04-27T07:24:23;101277.34;;;32.27;31.50
32237;BME280;18726;44.732;10.550;2023-04-27T07:27:27;101263.44;;;32.97;32.82
32237;BME280;18726;44.732;10.550;2023-04-27T07:30:30;101267.34;;;32.26;32.13
32237;BME280;18726;44.732;10.550;2023-04-27T07:33:36;101271.28;;;31.80;33.09
32237;BME280;18726;44.732;10.550;2023-04-27T07:36:40;101258.44;;;30.99;34.11
32237;BME280;18726;44.732;10.550;2023-04-27T07:39:44;101262.06;;;31.80;32.76
32237;BME280;18726;44.732;10.550;2023-04-27T07:42:48;101271.47;;;34.40;32.03
32237;BME280;18726;44.732;10.550;2023-04-27T07:45:52;101274.84;;;33.37;31.76
32237;BME280;18726;44.732;10.550;2023-04-27T07:49:00;101263.16;;;32.95;32.78
32237;BME280;18726;44.732;10.550;2023-04-27T07:52:04;101275.50;;;34.85;30.86
32237;BME280;18726;44.732;10.550;2023-04-27T07:55:08;101274.72;;;32.97;32.23
32237;BME280;18726;44.732;10.550;2023-04-27T07:58:12;101272.56;;;29.62;35.91
32237;BME280;18726;44.732;10.550;2023-04-27T08:01:16;101256.25;;;28.89;38.03
32237;BME280;18726;44.732;10.550;2023-04-27T08:04:20;101262.41;;;29.06;37.61
32237;BME280;18726;44.732;10.550;2023-04-27T08:07:23;101278.50;;;30.64;36.37
32237;BME280;18726;44.732;10.550;2023-04-27T08:10:27;101274.25;;;31.53;35.34
32237;BME280;18726;44.732;10.550;2023-04-27T08:13:34;101275.09;;;30.60;35.69
32237;BME280;18726;44.732;10.550;2023-04-27T08:16:40;101270.44;;;28.95;39.32
32237;BME280;18726;44.732;10.550;2023-04-27T08:19:44;101267.72;;;29.53;38.43
32237;BME280;18726;44.732;10.550;2023-04-27T08:22:49;101268.28;;;28.46;39.05
32237;BME280;18726;44.732;10.550;2023-04-27T08:25:53;101260.41;;;28.32;40.99
32237;BME280;18726;44.732;10.550;2023-04-27T08:28:56;101263.38;;;25.31;44.16
32237;BME280;18726;44.732;10.550;2023-04-27T08:32:03;101271.59;;;24.82;46.77
32237;BME280;18726;44.732;10.550;2023-04-27T08:35:07;101272.19;;;24.11;50.36
32237;BME280;18726;44.732;10.550;2023-04-27T08:38:11;101267.06;;;24.88;52.60
32237;BME280;18726;44.732;10.550;2023-04-27T08:41:18;101273.38;;;25.77;52.85
32237;BME280;18726;44.732;10.550;2023-04-27T08:44:23;101265.31;;;26.41;47.47
32237;BME280;18726;44.732;10.550;2023-04-27T08:47:27;101275.13;;;25.39;52.13
32237;BME280;18726;44.732;10.550;2023-04-27T08:50:31;101275.34;;;26.38;48.13
32237;BME280;18726;44.732;10.550;2023-04-27T08:53:35;101273.97;;;25.36;52.89
32237;BME280;18726;44.732;10.550;2023-04-27T08:56:39;101269.84;;;24.88;54.87
32237;BME280;18726;44.732;10.550;2023-04-27T08:59:43;101276.16;;;26.22;52.48
32237;BME280;18726;44.732;10.550;2023-04-27T09:02:47;101291.09;;;28.10;46.38
32237;BME280;18726;44.732;10.550;2023-04-27T09:05:51;101275.13;;;28.76;46.30
32237;BME280;18726;44.732;10.550;2023-04-27T09:08:54;101275.06;;;27.41;44.64
32237;BME280;18726;44.732;10.550;2023-04-27T09:11:58;101267.81;;;25.61;50.01
32237;BME280;18726;44.732;10.550;2023-04-27T09:15:02;101273.78;;;25.27;52.05
32237;BME280;18726;44.732;10.550;2023-04-27T09:18:14;101276.28;;;27.02;51.79
32237;BME280;18726;44.732;10.550;2023-04-27T09:21:23;101270.50;;;27.09;51.11
32237;BME280;18726;44.732;10.550;2023-04-27T09:24:26;101269.59;;;25.19;53.70
32237;BME280;18726;44.732;10.550;2023-04-27T09:27:30;101269.78;;;26.80;50.39
32237;BME280;18726;44.732;10.550;2023-04-27T09:30:34;101266.22;;;24.91;53.27
32237;BME280;18726;44.732;10.550;2023-04-27T09:33:40;101259.41;;;24.56;58.03
32237;BME280;18726;44.732;10.550;2023-04-27T09:36:44;101257.94;;;25.08;58.33
32237;BME280;18726;44.732;10.550;2023-04-27T09:39:48;101270.06;;;26.69;54.49
32237;BME280;18726;44.732;10.550;2023-04-27T09:42:52;101266.50;;;26.69;51.57
32237;BME280;18726;44.732;10.550;2023-04-27T09:45:57;101247.31;;;23.84;63.20
32237;BME280;18726;44.732;10.550;2023-04-27T09:49:03;101243.28;;;25.07;60.96
32237;BME280;18726;44.732;10.550;2023-04-27T09:52:07;101243.69;;;24.50;57.73
32237;BME280;18726;44.732;10.550;2023-04-27T09:55:15;101251.00;;;24.80;57.96
32237;BME280;18726;44.732;10.550;2023-04-27T10:01:45;101232.06;;;23.72;62.99
32237;BME280;18726;44.732;10.550;2023-04-27T10:05:20;101228.03;;;23.53;67.15
32237;BME280;18726;44.732;10.550;2023-04-27T10:08:28;101230.47;;;22.98;68.09
32237;BME280;18726;44.732;10.550;2023-04-27T10:11:42;101237.06;;;23.81;68.55
32237;BME280;18726;44.732;10.550;2023-04-27T10:14:54;101235.31;;;23.90;61.69
32237;BME280;18726;44.732;10.550;2023-04-27T10:18:03;101234.88;;;24.35;64.44
32237;BME280;18726;44.732;10.550;2023-04-27T10:21:10;101230.31;;;24.45;67.97
32237;BME280;18726;44.732;10.550;2023-04-27T10:24:14;101229.16;;;24.22;64.26
32237;BME280;18726;44.732;10.550;2023-04-27T10:27:19;101230.88;;;23.23;69.14
32237;BME280;18726;44.732;10.550;2023-04-27T10:30:30;101229.13;;;25.34;62.49
32237;BME280;18726;44.732;10.550;2023-04-27T10:33:41;101233.63;;;25.44;57.19
32237;BME280;18726;44.732;10.550;2023-04-27T10:36:46;101224.97;;;22.94;67.37
32237;BME280;18726;44.732;10.550;2023-04-27T10:39:49;101216.94;;;23.53;65.68
32237;BME280;18726;44.732;10.550;2023-04-27T10:42:53;101213.44;;;23.22;68.42
32237;BME280;18726;44.732;10.550;2023-04-27T10:46:14;101211.00;;;23.75;67.67
32237;BME280;18726;44.732;10.550;2023-04-27T10:49:18;101222.22;;;24.11;68.28
32237;BME280;18726;44.732;10.550;2023-04-27T10:52:22;101213.19;;;23.64;65.16
32237;BME280;18726;44.732;10.550;2023-04-27T10:55:26;101202.31;;;23.49;64.03
32237;BME280;18726;44.732;10.550;2023-04-27T10:58:30;101196.56;;;23.64;66.13
32237;BME280;18726;44.732;10.550;2023-04-27T11:01:34;101204.78;;;24.10;60.59
32237;BME280;18726;44.732;10.550;2023-04-27T11:04:38;101190.00;;;24.37;60.50
32237;BME280;18726;44.732;10.550;2023-04-27T11:07:43;101203.28;;;24.06;58.87
32237;BME280;18726;44.732;10.550;2023-04-27T11:10:49;101201.28;;;23.86;54.81
32237;BME280;18726;44.732;10.550;2023-04-27T11:13:54;101192.22;;;23.63;55.20
32237;BME280;18726;44.732;10.550;2023-04-27T11:17:00;101196.16;;;24.05;52.09
32237;BME280;18726;44.732;10.550;2023-04-27T11:20:05;101203.13;;;25.08;53.56
32237;BME280;18726;44.732;10.550;2023-04-27T11:23:22;101197.78;;;25.79;54.65
32237;BME280;18726;44.732;10.550;2023-04-27T11:26:26;101191.56;;;24.38;54.84
32237;BME280;18726;44.732;10.550;2023-04-27T11:29:36;101204.19;;;23.99;57.70
32237;BME280;18726;44.732;10.550;2023-04-27T11:32:40;101195.31;;;24.08;57.77
32237;BME280;18726;44.732;10.550;2023-04-27T11:35:44;101198.94;;;24.64;57.32
32237;BME280;18726;44.732;10.550;2023-04-27T11:38:48;101191.97;;;24.56;54.63
32237;BME280;18726;44.732;10.550;2023-04-27T11:41:52;101206.00;;;25.05;53.74
32237;BME280;18726;44.732;10.550;2023-04-27T11:48:02;101188.44;;;25.08;52.72
32237;BME280;18726;44.732;10.550;2023-04-27T11:51:09;101194.97;;;24.26;50.26
32237;BME280;18726;44.732;10.550;2023-04-27T11:54:13;101189.44;;;24.81;52.31
32237;BME280;18726;44.732;10.550;2023-04-27T11:57:23;101190.75;;;24.93;53.62
32237;BME280;18726;44.732;10.550;2023-04-27T12:00:28;101189.34;;;24.29;52.81
32237;BME280;18726;44.732;10.550;2023-04-27T12:03:32;101196.03;;;23.92;56.00
32237;BME280;18726;44.732;10.550;2023-04-27T12:06:36;101201.78;;;24.01;54.62
32237;BME280;18726;44.732;10.550;2023-04-27T12:09:40;101190.94;;;23.67;50.68
32237;BME280;18726;44.732;10.550;2023-04-27T12:12:44;101194.66;;;24.79;49.55
32237;BME280;18726;44.732;10.550;2023-04-27T12:15:48;101200.53;;;25.95;48.26
32237;BME280;18726;44.732;10.550;2023-04-27T12:18:51;101196.78;;;25.24;44.76
32237;BME280;18726;44.732;10.550;2023-04-27T12:21:56;101196.44;;;25.06;43.37
32237;BME280;18726;44.732;10.550;2023-04-27T12:25:00;101188.41;;;25.56;42.62
32237;BME280;18726;44.732;10.550;2023-04-27T12:28:04;101188.75;;;25.58;45.76
32237;BME280;18726;44.732;10.550;2023-04-27T12:31:14;101192.22;;;24.81;48.45
32237;BME280;18726;44.732;10.550;2023-04-27T12:34:18;101194.00;;;24.36;47.95
32237;BME280;18726;44.732;10.550;2023-04-27T12:37:23;101182.84;;;24.91;46.74
32237;BME280;18726;44.732;10.550;2023-04-27T12:40:28;101173.91;;;24.08;45.86
32237;BME280;18726;44.732;10.550;2023-04-27T12:43:31;101180.31;;;24.05;48.01
32237;BME280;18726;44.732;10.550;2023-04-27T12:46:35;101178.69;;;24.28;48.71
32237;BME280;18726;44.732;10.550;2023-04-27T12:49:39;101182.16;;;23.92;51.45
32237;BME280;18726;44.732;10.550;2023-04-27T12:52:43;101180.03;;;23.56;50.39
32237;BME280;18726;44.732;10.550;2023-04-27T12:55:47;101176.59;;;23.92;53.00
32237;BME280;18726;44.732;10.550;2023-04-27T12:58:51;101177.78;;;23.24;56.23
32237;BME280;18726;44.732;10.550;2023-04-27T13:01:55;101191.84;;;22.83;53.47
32237;BME280;18726;44.732;10.550;2023-04-27T13:04:59;101183.75;;;22.39;54.24
32237;BME280;18726;44.732;10.550;2023-04-27T13:08:03;101182.41;;;23.78;52.31
32237;BME280;18726;44.732;10.550;2023-04-27T13:11:08;101175.84;;;24.31;47.94
32237;BME280;18726;44.732;10.550;2023-04-27T13:14:12;101174.19;;;24.34;48.63
32237;BME280;18726;44.732;10.550;2023-04-27T13:17:16;101170.28;;;24.31;49.04
32237;BME280;18726;44.732;10.550;2023-04-27T13:20:20;101164.56;;;23.99;48.33
32237;BME280;18726;44.732;10.550;2023-04-27T13:23:24;101154.41;;;24.32;48.07
32237;BME280;18726;44.732;10.550;2023-04-27T13:26:28;101162.72;;;24.12;51.81
32237;BME280;18726;44.732;10.550;2023-04-27T13:29:32;101147.84;;;24.42;48.32
32237;BME280;18726;44.732;10.550;2023-04-27T13:32:36;101158.28;;;23.51;48.06
32237;BME280;18726;44.732;10.550;2023-04-27T13:35:40;101156.00;;;23.46;49.71
32237;BME280;18726;44.732;10.550;2023-04-27T13:38:44;101153.94;;;22.80;49.24
32237;BME280;18726;44.732;10.550;2023-04-27T13:41:48;101147.31;;;23.68;51.29
32237;BME280;18726;44.732;10.550;2023-04-27T13:44:51;101153.97;;;24.13;47.78
32237;BME280;18726;44.732;10.550;2023-04-27T13:47:55;101147.56;;;23.77;46.44
32237;BME280;18726;44.732;10.550;2023-04-27T13:50:59;101149.88;;;23.35;48.07
32237;BME280;18726;44.732;10.550;2023-04-27T13:54:03;101149.34;;;23.87;46.50
32237;BME280;18726;44.732;10.550;2023-04-27T13:57:07;101147.34;;;24.07;46.43
32237;BME280;18726;44.732;10.550;2023-04-27T14:00:11;101139.59;;;23.79;47.07
32237;BME280;18726;44.732;10.550;2023-04-27T14:03:15;101147.16;;;23.32;48.96
32237;BME280;18726;44.732;10.550;2023-04-27T14:06:19;101139.63;;;23.32;47.09
32237;BME280;18726;44.732;10.550;2023-04-27T14:09:23;101146.75;;;23.56;49.83
32237;BME280;18726;44.732;10.550;2023-04-27T14:12:30;101134.66;;;23.43;49.34
32237;BME280;18726;44.732;10.550;2023-04-27T14:15:34;101126.13;;;23.58;46.37
32237;BME280;18726;44.732;10.550;2023-04-27T14:18:39;101126.28;;;23.47;49.11
32237;BME280;18726;44.732;10.550;2023-04-27T14:21:43;101128.78;;;23.65;49.84
32237;BME280;18726;44.732;10.550;2023-04-27T14:24:47;101136.22;;;23.44;48.82
32237;BME280;18726;44.732;10.550;2023-04-27T14:27:51;101138.09;;;22.81;47.89
32237;BME280;18726;44.732;10.550;2023-04-27T14:30:55;101130.22;;;22.79;47.56
32237;BME280;18726;44.732;10.550;2023-04-27T14:33:58;101126.94;;;22.84;47.93
32237;BME280;18726;44.732;10.550;2023-04-27T14:37:02;101125.38;;;22.83;47.01
32237;BME280;18726;44.732;10.550;2023-04-27T14:40:06;101127.66;;;22.88;47.56
32237;BME280;18726;44.732;10.550;2023-04-27T14:43:09;101135.28;;;23.08;49.32
32237;BME280;18726;44.732;10.550;2023-04-27T14:46:15;101125.69;;;22.89;47.20
32237;BME280;18726;44.732;10.550;2023-04-27T14:49:19;101127.34;;;23.10;47.34
32237;BME280;18726;44.732;10.550;2023-04-27T14:52:23;101137.22;;;23.34;48.68
32237;BME280;18726;44.732;10.550;2023-04-27T14:55:27;101136.59;;;23.00;47.11
32237;BME280;18726;44.732;10.550;2023-04-27T14:58:32;101129.66;;;22.88;47.46
32237;BME280;18726;44.732;10.550;2023-04-27T15:01:36;101123.66;;;22.93;45.77
32237;BME280;18726;44.732;10.550;2023-04-27T15:04:40;101127.09;;;23.24;48.47
32237;BME280;18726;44.732;10.550;2023-04-27T15:07:44;101121.06;;;23.29;48.27
32237;BME280;18726;44.732;10.550;2023-04-27T15:10:48;101119.50;;;23.05;49.46
32237;BME280;18726;44.732;10.550;2023-04-27T15:13:51;101115.47;;;23.33;50.24
32237;BME280;18726;44.732;10.550;2023-04-27T15:16:55;101104.41;;;23.09;49.08
32237;BME280;18726;44.732;10.550;2023-04-27T15:19:59;101109.97;;;23.29;47.71
32237;BME280;18726;44.732;10.550;2023-04-27T15:23:03;101114.31;;;23.30;47.76
32237;BME280;18726;44.732;10.550;2023-04-27T15:26:06;101119.44;;;23.08;47.97
32237;BME280;18726;44.732;10.550;2023-04-27T15:29:10;101129.03;;;22.50;50.90
32237;BME280;18726;44.732;10.550;2023-04-27T15:32:14;101120.19;;;22.58;49.71
32237;BME280;18726;44.732;10.550;2023-04-27T15:35:18;101120.19;;;22.58;50.55
32237;BME280;18726;44.732;10.550;2023-04-27T15:38:21;101124.84;;;22.65;48.56
32237;BME280;18726;44.732;10.550;2023-04-27T15:41:25;101129.06;;;22.46;50.24
32237;BME280;18726;44.732;10.550;2023-04-27T15:44:28;101125.75;;;22.55;49.53
32237;BME280;18726;44.732;10.550;2023-04-27T15:47:31;101125.31;;;22.60;49.87
32237;BME280;18726;44.732;10.550;2023-04-27T15:50:35;101123.31;;;22.34;49.09
32237;BME280;18726;44.732;10.550;2023-04-27T15:53:39;101130.22;;;22.49;48.83
32237;BME280;18726;44.732;10.550;2023-04-27T15:56:43;101127.72;;;22.28;51.07